Time;durP1;ratioP1;P1;durP2;ratioP2;P2;SDS_P1;SDS_P2;PMS_P1;PMS_P2;Temp;Humidity;BMP_temperature;BMP_pressure;BME280_temperature;BME280_humidity;BME280_pressure;Samples;Min_cycle;Max_cycle;Signal;HPM_P1;HPM_P2
2022/01/28 00:01:16;;;;;;;12.27;1.90;;;5.00;99.90;;;;;;5011648;28;20512;-77
2022/01/28 00:03:41;;;;;;;12.88;2.00;;;5.00;99.90;;;;;;4977388;28;20042;-77
2022/01/28 00:06:07;;;;;;;17.25;2.70;;;5.10;99.90;;;;;;4976012;28;20042;-77
2022/01/28 00:08:33;;;;;;;16.00;2.58;;;5.10;99.90;;;;;;4995572;28;20489;-77
2022/01/28 00:10:59;;;;;;;13.35;1.45;;;5.00;99.90;;;;;;4990489;28;20030;-77
2022/01/28 00:16:09;;;;;;;14.43;2.28;;;5.00;99.90;;;;;;4978523;28;20531;-77
2022/01/28 00:18:58;;;;;;;10.13;1.70;;;5.00;99.90;;;;;;5009451;28;20043;-77
2022/01/28 00:40:28;;;;;;;16.70;2.10;;;5.00;99.90;;;;;;5002451;28;20057;-77
2022/01/28 00:42:54;;;;;;;14.88;2.10;;;5.00;99.90;;;;;;5002936;28;20049;-77
2022/01/28 00:45:20;;;;;;;17.90;2.63;;;5.10;99.90;;;;;;4996117;28;20038;-78
2022/01/28 00:47:47;;;;;;;17.75;2.42;;;5.10;99.90;;;;;;4999240;28;20081;-77
2022/01/28 00:50:13;;;;;;;16.08;1.92;;;5.10;99.90;;;;;;5009486;28;20046;-77
2022/01/28 00:52:39;;;;;;;19.95;2.50;;;5.00;99.90;;;;;;4994601;28;20447;-77
2022/01/28 00:55:05;;;;;;;13.07;2.00;;;5.10;99.90;;;;;;4997863;28;20069;-77
2022/01/28 00:57:31;;;;;;;21.48;2.80;;;5.00;99.90;;;;;;4992289;28;20038;-77
2022/01/28 00:59:56;;;;;;;19.15;3.15;;;5.00;99.90;;;;;;5012103;28;20425;-77
2022/01/28 01:02:22;;;;;;;21.48;3.38;;;4.90;99.90;;;;;;4979402;28;20050;-77
2022/01/28 01:04:48;;;;;;;13.90;2.53;;;4.90;99.90;;;;;;4982873;28;20046;-77
2022/01/28 01:07:13;;;;;;;12.48;2.35;;;4.90;99.90;;;;;;4998893;28;20077;-77
2022/01/28 01:09:39;;;;;;;22.73;3.42;;;4.90;99.90;;;;;;4983547;28;20570;-77
2022/01/28 01:12:05;;;;;;;24.13;3.53;;;4.80;99.90;;;;;;5013607;28;20046;-77
2022/01/28 01:14:31;;;;;;;31.88;4.30;;;4.80;99.90;;;;;;4976566;28;20042;-77
2022/01/28 01:17:05;;;;;;;22.83;3.58;;;4.90;99.90;;;;;;4999715;28;20065;-77
2022/01/28 01:19:36;;;;;;;18.95;2.53;;;4.90;99.90;;;;;;5014879;28;20484;-77
2022/01/28 01:22:02;;;;;;;21.02;4.70;;;4.90;99.90;;;;;;4999144;28;20396;-77
2022/01/28 01:24:35;;;;;;;22.95;3.78;;;4.90;99.90;;;;;;5012839;28;20041;-77
2022/01/28 01:27:00;;;;;;;24.50;3.35;;;4.90;99.90;;;;;;4977401;28;20038;-77
2022/01/28 01:29:27;;;;;;;19.27;2.90;;;4.90;99.90;;;;;;4999375;28;20501;-77
2022/01/28 01:32:01;;;;;;;20.13;3.15;;;5.00;99.90;;;;;;4995636;28;20049;-77
2022/01/28 01:34:27;;;;;;;23.13;2.88;;;4.90;99.90;;;;;;4997274;28;20048;-77
2022/01/28 01:36:53;;;;;;;18.40;2.97;;;5.00;99.90;;;;;;4978236;28;20121;-77
2022/01/28 01:39:23;;;;;;;19.73;2.38;;;5.00;99.90;;;;;;4980414;28;20177;-77
2022/01/28 01:42:01;;;;;;;18.13;2.85;;;5.00;99.90;;;;;;4993150;28;20116;-77
2022/01/28 01:52:39;;;;;;;15.82;2.55;;;5.00;99.90;;;;;;5015423;28;20046;-77
2022/01/28 01:55:06;;;;;;;18.00;3.38;;;4.90;99.90;;;;;;4998066;28;20049;-77
2022/01/28 01:57:33;;;;;;;17.52;2.33;;;4.90;99.90;;;;;;4984126;28;20042;-77
2022/01/28 01:59:59;;;;;;;15.13;2.35;;;4.90;99.90;;;;;;4996825;28;20049;-77
2022/01/28 02:02:25;;;;;;;18.63;2.78;;;5.00;99.90;;;;;;4994048;28;20397;-77
2022/01/28 02:04:50;;;;;;;21.90;2.50;;;5.00;99.90;;;;;;4983112;28;20038;-77
2022/01/28 02:07:16;;;;;;;24.45;4.15;;;5.00;99.90;;;;;;5027933;28;20468;-77
2022/01/28 02:09:42;;;;;;;21.08;2.92;;;5.00;99.90;;;;;;5012424;28;20054;-77
2022/01/28 02:12:09;;;;;;;17.00;2.58;;;4.90;99.90;;;;;;4998394;28;20038;-77
2022/01/28 02:14:35;;;;;;;24.45;3.22;;;4.90;99.90;;;;;;5009375;28;20046;-77
2022/01/28 02:17:02;;;;;;;22.55;3.38;;;4.90;99.90;;;;;;4999785;28;20412;-77
2022/01/28 02:19:28;;;;;;;21.58;4.35;;;4.90;99.90;;;;;;4978242;28;20080;-77
2022/01/28 02:21:56;;;;;;;20.80;2.75;;;4.80;99.90;;;;;;4980353;28;20074;-77
2022/01/28 02:24:32;;;;;;;23.38;3.08;;;4.90;99.90;;;;;;4995281;28;20121;-78
2022/01/28 02:26:57;;;;;;;27.60;3.38;;;4.90;99.90;;;;;;4978142;28;20660;-77
2022/01/28 02:29:31;;;;;;;16.05;2.50;;;4.90;99.90;;;;;;5011137;28;20061;-77
2022/01/28 02:31:59;;;;;;;22.92;3.65;;;4.90;99.90;;;;;;5011754;28;20038;-78
2022/01/28 02:34:25;;;;;;;21.15;2.65;;;5.00;99.90;;;;;;4977702;28;20563;-77
2022/01/28 02:36:50;;;;;;;17.17;3.75;;;5.00;99.90;;;;;;4998127;28;20104;-77
2022/01/28 02:39:16;;;;;;;24.70;4.18;;;5.10;99.90;;;;;;4994320;28;20042;-77
2022/01/28 02:41:46;;;;;;;23.73;3.17;;;5.00;99.90;;;;;;4996043;28;20026;-77
2022/01/28 02:46:43;;;;;;;20.23;3.20;;;5.00;99.90;;;;;;4998199;28;20050;-77
2022/01/28 02:49:14;;;;;;;;;;;5.00;99.90;;;;;;4997830;28;20052;-77
2022/01/28 02:51:40;;;;;;;22.73;3.47;;;4.90;99.90;;;;;;5011780;28;20017;-77
2022/01/28 02:54:17;;;;;;;22.60;2.72;;;4.90;99.90;;;;;;4994096;28;20049;-77
2022/01/28 02:56:55;;;;;;;19.70;3.22;;;4.90;99.90;;;;;;4977371;28;20046;-77
2022/01/28 02:59:21;;;;;;;18.80;4.05;;;4.90;99.90;;;;;;4997769;28;20041;-77
2022/01/28 03:01:47;;;;;;;18.95;2.30;;;4.90;99.90;;;;;;5013924;28;20035;-77
2022/01/28 03:04:31;;;;;;;22.83;3.45;;;4.80;99.90;;;;;;4994522;28;20096;-77
2022/01/28 03:06:57;;;;;;;17.52;3.08;;;4.80;99.90;;;;;;5009742;28;20054;-77
2022/01/28 03:09:22;;;;;;;18.67;3.33;;;4.80;99.90;;;;;;5011755;28;20033;-78
2022/01/28 03:12:13;;;;;;;19.38;3.20;;;4.70;99.90;;;;;;4995146;28;20551;-77
2022/01/28 03:14:59;;;;;;;18.33;2.58;;;4.80;99.90;;;;;;4977082;28;20894;-78
2022/01/28 03:18:10;;;;;;;23.80;3.17;;;4.70;99.90;;;;;;4979079;28;20572;-77
2022/01/28 03:22:45;;;;;;;17.90;3.55;;;4.80;99.90;;;;;;4991277;28;20437;-77
2022/01/28 03:25:12;;;;;;;16.90;2.38;;;4.80;99.90;;;;;;4993175;28;20038;-77
2022/01/28 03:27:55;;;;;;;23.27;3.10;;;4.80;99.90;;;;;;5012138;28;20123;-77
2022/01/28 03:30:22;;;;;;;22.77;2.70;;;4.80;99.90;;;;;;4994163;28;20050;-77
2022/01/28 03:32:48;;;;;;;25.50;3.10;;;4.80;99.90;;;;;;4975447;28;20061;-77
2022/01/28 03:35:16;;;;;;;24.70;3.22;;;4.80;99.90;;;;;;4977449;28;20038;-77
2022/01/28 03:37:42;;;;;;;20.63;3.75;;;4.80;99.90;;;;;;5012226;28;20061;-78
2022/01/28 03:40:08;;;;;;;25.02;3.70;;;4.80;99.90;;;;;;5009172;28;20430;-78
2022/01/28 03:42:35;;;;;;;29.52;3.70;;;4.80;99.90;;;;;;5012596;28;20469;-78
2022/01/28 03:45:01;;;;;;;17.17;3.25;;;4.80;99.90;;;;;;4996285;28;20087;-77
2022/01/28 03:47:27;;;;;;;31.95;5.75;;;4.80;99.90;;;;;;4979475;28;20053;-77
2022/01/28 03:49:52;;;;;;;19.27;3.30;;;4.80;99.90;;;;;;4979795;28;20042;-77
2022/01/28 03:52:18;;;;;;;22.38;3.63;;;4.80;99.90;;;;;;4995180;28;20130;-78
2022/01/28 03:54:44;;;;;;;21.00;3.88;;;4.70;99.90;;;;;;4975261;28;20052;-77
2022/01/28 03:57:09;;;;;;;20.90;2.90;;;4.70;99.90;;;;;;4992647;28;20042;-77
2022/01/28 03:59:35;;;;;;;20.85;3.20;;;4.70;99.90;;;;;;5009760;28;20095;-78
2022/01/28 04:02:04;;;;;;;26.77;3.28;;;4.70;99.90;;;;;;4996179;28;20053;-78
2022/01/28 04:12:33;;;;;;;27.05;4.00;;;4.70;99.90;;;;;;4980200;28;20077;-77
2022/01/28 04:17:24;;;;;;;23.08;3.25;;;4.80;99.90;;;;;;5002770;28;20050;-77
2022/01/28 04:19:51;;;;;;;21.02;3.28;;;4.70;99.90;;;;;;4980758;28;20144;-77
2022/01/28 04:22:17;;;;;;;25.85;4.45;;;4.70;99.90;;;;;;4977161;28;20038;-77
2022/01/28 04:24:43;;;;;;;24.17;4.05;;;4.80;99.90;;;;;;5014551;28;20088;-77
2022/01/28 04:27:08;;;;;;;24.42;4.63;;;4.70;99.90;;;;;;4998822;28;20473;-77
2022/01/28 04:29:34;;;;;;;25.02;3.50;;;4.80;99.90;;;;;;4996584;28;20040;-77
2022/01/28 04:32:00;;;;;;;32.22;4.68;;;4.80;99.90;;;;;;5002713;28;20439;-78
2022/01/28 04:34:26;;;;;;;30.25;4.05;;;4.80;99.90;;;;;;5014128;28;20563;-78
2022/01/28 04:37:04;;;;;;;24.05;4.57;;;4.80;99.90;;;;;;5015529;28;20050;-78
2022/01/28 04:44:53;;;;;;;21.75;3.45;;;4.90;99.90;;;;;;4997394;28;20559;-77
2022/01/28 04:47:35;;;;;;;18.52;2.80;;;4.90;99.90;;;;;;4982533;28;20034;-78
2022/01/28 04:50:18;;;;;;;29.65;4.50;;;4.90;99.90;;;;;;4995376;28;20122;-77
2022/01/28 04:53:16;;;;;;;28.42;4.78;;;4.90;99.90;;;;;;5017040;28;20042;-78
2022/01/28 05:01:06;;;;;;;23.58;4.65;;;5.00;99.90;;;;;;5000515;28;20089;-77
2022/01/28 05:09:25;;;;;;;28.63;3.90;;;5.00;99.90;;;;;;5000003;28;20046;-78
2022/01/28 05:12:26;;;;;;;27.77;3.88;;;4.90;99.90;;;;;;4977308;28;20482;-77
2022/01/28 05:26:11;;;;;;;24.65;3.55;;;4.90;99.90;;;;;;4980774;28;20054;-78
2022/01/28 05:28:35;;;;;;;30.63;4.43;;;4.90;99.90;;;;;;4976630;28;20054;-78
2022/01/28 05:31:01;;;;;;;24.17;3.33;;;5.00;99.90;;;;;;4993128;28;20039;-78
2022/01/28 05:33:27;;;;;;;20.42;3.53;;;5.00;99.90;;;;;;4977729;28;20241;-78
2022/01/28 05:35:52;;;;;;;33.83;4.78;;;5.00;99.90;;;;;;5011831;28;20042;-78
2022/01/28 05:38:18;;;;;;;29.65;4.03;;;5.10;99.90;;;;;;4981294;28;20033;-78
2022/01/28 05:40:44;;;;;;;24.85;3.85;;;5.10;99.90;;;;;;4996314;28;20062;-77
2022/01/28 05:43:09;;;;;;;23.15;3.90;;;5.20;99.90;;;;;;4997413;28;20072;-78
2022/01/28 05:45:35;;;;;;;28.35;4.22;;;5.20;99.90;;;;;;4977558;28;20050;-78
2022/01/28 05:48:00;;;;;;;24.83;4.22;;;5.20;99.90;;;;;;4995827;28;20046;-78
2022/01/28 05:50:26;;;;;;;25.23;4.70;;;5.20;99.90;;;;;;4993850;28;20064;-77
2022/01/28 05:52:52;;;;;;;24.08;4.55;;;5.20;99.90;;;;;;5014615;28;20546;-77
2022/01/28 05:55:17;;;;;;;24.40;3.92;;;5.20;99.90;;;;;;4995150;28;20081;-78
2022/01/28 05:57:44;;;;;;;27.52;4.55;;;5.10;99.90;;;;;;5013956;28;20045;-78
2022/01/28 06:00:10;;;;;;;26.67;3.80;;;5.10;99.90;;;;;;4985638;28;20109;-78
2022/01/28 06:02:36;;;;;;;36.83;5.75;;;5.10;99.90;;;;;;5002643;28;20145;-78
2022/01/28 06:05:02;;;;;;;28.75;3.95;;;5.00;99.90;;;;;;5013233;28;20045;-78
2022/01/28 06:07:27;;;;;;;23.35;3.95;;;5.00;99.90;;;;;;4992611;28;20058;-78
2022/01/28 06:09:53;;;;;;;35.58;6.00;;;5.00;99.90;;;;;;5006628;28;20041;-77
2022/01/28 06:12:20;;;;;;;31.02;5.43;;;5.00;99.90;;;;;;4976398;28;20053;-78
2022/01/28 06:14:46;;;;;;;30.42;4.53;;;5.00;99.90;;;;;;5009144;28;20050;-78
2022/01/28 06:17:11;;;;;;;29.80;5.00;;;5.00;99.90;;;;;;4992065;28;20080;-78
2022/01/28 06:19:37;;;;;;;34.67;4.45;;;4.90;99.90;;;;;;5005955;28;20129;-78
2022/01/28 06:22:03;;;;;;;27.70;4.20;;;4.90;99.90;;;;;;4978051;28;20041;-78
2022/01/28 06:24:29;;;;;;;26.52;3.53;;;4.90;99.90;;;;;;4992370;28;20038;-77
2022/01/28 06:26:55;;;;;;;29.38;5.68;;;5.00;99.90;;;;;;4977790;28;20091;-77
2022/01/28 06:29:20;;;;;;;27.80;5.13;;;4.90;99.90;;;;;;4977708;28;20041;-77
2022/01/28 06:31:47;;;;;;;30.27;4.28;;;4.90;99.90;;;;;;5009167;28;20100;-77
2022/01/28 06:34:13;;;;;;;23.40;3.70;;;4.90;99.90;;;;;;5006895;28;20047;-77
2022/01/28 06:36:38;;;;;;;31.50;4.97;;;4.90;99.90;;;;;;4994184;28;20045;-77
2022/01/28 06:39:07;;;;;;;24.90;3.42;;;5.00;99.90;;;;;;4976547;28;20041;-77
2022/01/28 06:41:33;;;;;;;30.00;4.10;;;4.90;99.90;;;;;;4993865;28;20414;-79
2022/01/28 06:43:59;;;;;;;31.90;5.15;;;4.90;99.90;;;;;;4978699;28;20045;-78
2022/01/28 06:46:24;;;;;;;21.13;3.83;;;5.00;99.90;;;;;;5009937;28;20041;-78
2022/01/28 06:48:50;;;;;;;34.20;4.43;;;4.90;99.90;;;;;;4993478;28;20558;-78
2022/01/28 06:51:16;;;;;;;22.63;3.65;;;4.90;99.90;;;;;;4990832;28;20880;-78
2022/01/28 06:53:42;;;;;;;25.95;4.43;;;4.80;99.90;;;;;;4995712;28;20513;-78
2022/01/28 06:56:07;;;;;;;23.75;3.40;;;4.90;99.90;;;;;;4974426;28;20061;-78
2022/01/28 06:58:33;;;;;;;19.25;3.95;;;4.80;99.90;;;;;;4994720;28;20033;-78
2022/01/28 07:00:58;;;;;;;23.50;3.83;;;4.80;99.90;;;;;;4990704;28;20153;-79
2022/01/28 07:03:24;;;;;;;40.25;4.88;;;4.80;99.90;;;;;;5012047;28;20133;-78
2022/01/28 07:05:50;;;;;;;19.98;3.80;;;4.80;99.90;;;;;;4975449;28;20046;-79
2022/01/28 07:08:15;;;;;;;34.72;4.03;;;4.80;99.90;;;;;;4992792;28;20046;-78
2022/01/28 07:10:41;;;;;;;32.92;5.30;;;4.80;99.90;;;;;;4975390;28;20092;-78
2022/01/28 07:13:07;;;;;;;25.05;3.70;;;4.80;99.90;;;;;;5009193;28;20037;-77
2022/01/28 07:15:32;;;;;;;24.88;4.53;;;4.90;99.90;;;;;;4997724;28;20095;-78
2022/01/28 07:18:02;;;;;;;23.77;3.63;;;4.80;99.90;;;;;;5011347;28;20085;-77
2022/01/28 07:20:33;;;;;;;25.75;4.18;;;4.80;99.90;;;;;;4998682;28;20092;-78
2022/01/28 07:22:59;;;;;;;24.27;4.80;;;4.80;99.90;;;;;;4993080;28;20509;-78
2022/01/28 07:25:25;;;;;;;23.77;3.88;;;4.80;99.90;;;;;;4995461;28;20054;-78
2022/01/28 07:27:51;;;;;;;22.92;4.55;;;4.80;99.90;;;;;;4991879;28;20042;-78
2022/01/28 07:30:16;;;;;;;23.33;4.38;;;4.80;99.90;;;;;;4988746;28;20045;-78
2022/01/28 07:32:43;;;;;;;29.02;3.78;;;4.70;99.90;;;;;;5007905;28;20050;-77
2022/01/28 07:35:09;;;;;;;21.95;3.92;;;4.70;99.90;;;;;;4993995;28;20064;-77
2022/01/28 07:37:35;;;;;;;19.20;4.20;;;4.80;99.90;;;;;;5006086;28;20047;-77
2022/01/28 07:40:03;;;;;;;29.67;5.28;;;4.70;99.90;;;;;;4961219;28;20053;-77
2022/01/28 07:42:33;;;;;;;33.25;3.75;;;4.70;99.90;;;;;;4983551;28;20564;-78
2022/01/28 07:44:59;;;;;;;28.40;4.85;;;4.70;99.90;;;;;;4992615;28;20057;-77
2022/01/28 07:47:25;;;;;;;24.27;4.32;;;4.70;99.90;;;;;;4994095;28;20039;-77
2022/01/28 07:49:50;;;;;;;25.92;3.83;;;4.70;99.90;;;;;;4988931;28;20092;-77
2022/01/28 07:52:16;;;;;;;28.73;3.80;;;4.70;99.90;;;;;;4976631;28;20039;-77
2022/01/28 07:54:47;;;;;;;15.65;2.67;;;4.70;99.90;;;;;;4995158;28;20039;-77
2022/01/28 07:57:13;;;;;;;23.90;3.80;;;4.70;99.90;;;;;;4997036;28;20455;-77
2022/01/28 07:59:39;;;;;;;21.45;3.35;;;4.70;99.90;;;;;;4992323;28;20117;-77
2022/01/28 08:02:04;;;;;;;22.27;3.55;;;4.60;99.90;;;;;;4994150;28;20025;-77
2022/01/28 08:04:30;;;;;;;26.25;4.82;;;4.50;99.90;;;;;;5011662;28;20030;-77
2022/01/28 08:06:56;;;;;;;23.08;4.13;;;4.60;99.90;;;;;;4975311;28;20579;-77
2022/01/28 08:09:21;;;;;;;21.98;3.38;;;4.50;99.90;;;;;;4994012;28;20046;-77
2022/01/28 08:11:47;;;;;;;20.52;2.85;;;4.50;99.90;;;;;;5007026;28;20050;-77
2022/01/28 08:14:14;;;;;;;29.52;4.82;;;4.40;99.90;;;;;;4976137;28;20058;-77
2022/01/28 08:16:40;;;;;;;28.48;4.47;;;4.40;99.90;;;;;;4974358;28;20054;-77
2022/01/28 08:19:05;;;;;;;27.75;3.33;;;4.40;99.90;;;;;;4978704;28;20038;-77
2022/01/28 08:21:31;;;;;;;25.40;3.35;;;4.40;99.90;;;;;;4978368;28;20093;-76
2022/01/28 08:23:57;;;;;;;21.38;3.35;;;4.40;99.90;;;;;;4976054;28;20038;-77
2022/01/28 08:26:23;;;;;;;29.70;4.40;;;4.40;99.90;;;;;;4993399;28;20037;-77
2022/01/28 08:28:49;;;;;;;25.95;3.13;;;4.50;99.90;;;;;;5008441;28;20046;-77
2022/01/28 08:31:15;;;;;;;24.48;3.83;;;4.50;99.90;;;;;;5005047;28;20053;-77
2022/01/28 08:33:40;;;;;;;18.65;3.65;;;4.50;99.90;;;;;;5010385;28;20133;-77
2022/01/28 08:36:06;;;;;;;27.35;4.00;;;4.50;99.90;;;;;;4992600;28;20165;-77
2022/01/28 08:38:44;;;;;;;28.35;3.78;;;4.50;99.90;;;;;;5006145;28;20137;-77
2022/01/28 08:41:14;;;;;;;23.95;2.65;;;4.50;99.90;;;;;;4987739;28;20770;-77
2022/01/28 08:43:42;;;;;;;19.45;3.28;;;4.60;99.90;;;;;;4993604;28;20084;-76
2022/01/28 08:46:09;;;;;;;32.05;5.63;;;4.60;99.90;;;;;;4973781;28;20074;-77
2022/01/28 08:48:34;;;;;;;21.90;4.70;;;4.60;99.90;;;;;;4975195;28;20056;-77
2022/01/28 08:51:01;;;;;;;27.98;4.20;;;4.60;99.90;;;;;;4973379;28;20033;-77
2022/01/28 08:53:26;;;;;;;22.45;4.43;;;4.80;99.90;;;;;;5010085;28;20042;-77
2022/01/28 08:55:52;;;;;;;25.88;3.90;;;4.80;99.90;;;;;;4992569;28;20064;-77
2022/01/28 08:58:18;;;;;;;23.20;4.68;;;4.80;99.90;;;;;;5010782;28;20417;-77
2022/01/28 09:00:47;;;;;;;26.88;3.30;;;4.80;99.90;;;;;;4979535;28;20058;-77
2022/01/28 09:03:16;;;;;;;23.35;3.40;;;4.90;99.90;;;;;;4996765;28;20050;-77
2022/01/28 09:05:43;;;;;;;24.52;4.32;;;4.90;99.90;;;;;;4990421;28;20228;-77
2022/01/28 09:08:09;;;;;;;29.27;4.63;;;5.00;99.90;;;;;;4980217;28;20057;-77
2022/01/28 09:10:45;;;;;;;19.55;3.53;;;5.00;99.90;;;;;;5010088;28;20386;-77
2022/01/28 09:13:23;;;;;;;27.20;2.97;;;5.00;99.90;;;;;;4993658;28;20089;-76
2022/01/28 09:15:49;;;;;;;24.85;3.20;;;5.00;99.90;;;;;;4961659;28;20038;-77
2022/01/28 09:18:16;;;;;;;19.98;4.20;;;5.10;99.90;;;;;;4994524;28;20471;-77
2022/01/28 09:20:42;;;;;;;28.25;5.32;;;5.10;99.90;;;;;;5010769;28;20056;-77
2022/01/28 09:23:09;;;;;;;24.25;3.15;;;5.10;99.90;;;;;;5000550;28;20486;-77
2022/01/28 09:25:34;;;;;;;26.38;3.53;;;5.20;99.90;;;;;;5000911;28;20086;-77
2022/01/28 09:28:01;;;;;;;24.38;3.80;;;5.20;99.90;;;;;;4999920;28;20078;-77
2022/01/28 09:30:27;;;;;;;20.48;3.60;;;5.30;99.90;;;;;;4995175;28;20065;-77
2022/01/28 09:32:53;;;;;;;29.00;3.97;;;5.30;99.90;;;;;;5011463;28;20045;-77
2022/01/28 09:35:19;;;;;;;31.52;4.90;;;5.40;99.90;;;;;;4984331;28;20037;-76
2022/01/28 09:37:45;;;;;;;35.03;4.30;;;5.60;99.90;;;;;;4980837;28;20408;-76
2022/01/28 09:40:12;;;;;;;25.13;4.18;;;5.60;99.90;;;;;;4979025;28;20096;-75
2022/01/28 09:42:41;;;;;;;28.17;4.30;;;5.70;99.90;;;;;;4993594;28;20129;-75
2022/01/28 09:45:09;;;;;;;28.63;4.63;;;5.80;99.90;;;;;;4974870;28;20073;-75
2022/01/28 09:47:35;;;;;;;27.33;4.22;;;5.90;99.90;;;;;;5010907;28;20132;-75
2022/01/28 09:50:03;;;;;;;22.98;4.15;;;5.90;99.90;;;;;;5011345;28;20575;-75
2022/01/28 09:52:28;;;;;;;27.48;5.03;;;6.00;99.90;;;;;;5010766;28;20512;-75
2022/01/28 09:54:54;;;;;;;29.05;3.75;;;6.10;99.90;;;;;;4976065;28;20042;-76
2022/01/28 09:57:20;;;;;;;26.73;4.70;;;6.10;99.90;;;;;;4994328;28;20065;-75
2022/01/28 09:59:47;;;;;;;34.20;3.92;;;6.20;99.90;;;;;;5010759;28;20161;-75
2022/01/28 10:02:13;;;;;;;26.15;4.00;;;6.20;99.90;;;;;;4981340;28;20038;-76
2022/01/28 10:04:39;;;;;;;21.10;3.95;;;6.20;99.90;;;;;;4977217;28;20046;-75
2022/01/28 10:07:12;;;;;;;22.35;4.32;;;6.30;99.90;;;;;;5011872;28;20493;-77
2022/01/28 10:09:53;;;;;;;24.60;4.80;;;6.30;99.90;;;;;;4993412;28;20404;-78
2022/01/28 10:12:26;;;;;;;23.83;4.18;;;6.30;99.90;;;;;;4993525;28;20041;-77
2022/01/28 10:15:01;;;;;;;23.60;3.90;;;6.40;99.90;;;;;;4994471;28;20045;-77
2022/01/28 10:17:57;;;;;;;19.13;2.92;;;6.40;99.90;;;;;;4993714;28;20448;-77
2022/01/28 10:20:25;;;;;;;25.88;3.67;;;6.40;99.90;;;;;;5007982;28;20064;-77
2022/01/28 10:22:59;;;;;;;23.70;4.18;;;6.40;99.90;;;;;;4977579;28;20061;-77
2022/01/28 10:25:34;;;;;;;30.08;4.63;;;6.50;99.90;;;;;;5006746;28;20049;-77
2022/01/28 10:28:02;;;;;;;23.67;3.65;;;6.50;99.90;;;;;;4978249;28;20054;-77
2022/01/28 10:30:29;;;;;;;28.70;4.03;;;6.40;99.90;;;;;;5008267;28;20092;-77
2022/01/28 10:33:16;;;;;;;23.77;3.60;;;6.60;99.90;;;;;;4977793;28;20500;-77
2022/01/28 10:35:56;;;;;;;23.33;3.67;;;6.60;99.90;;;;;;5010207;28;20065;-74
2022/01/28 10:38:34;;;;;;;23.30;4.35;;;6.60;99.90;;;;;;4979230;28;20044;-74
2022/01/28 10:41:26;;;;;;;28.70;4.10;;;6.70;99.90;;;;;;4994877;28;20042;-74
2022/01/28 10:43:56;;;;;;;20.90;4.60;;;6.80;99.90;;;;;;4972092;28;20050;-75
2022/01/28 10:46:25;;;;;;;31.60;3.88;;;6.70;99.90;;;;;;4997338;28;20763;-74
2022/01/28 10:49:03;;;;;;;20.80;3.55;;;6.80;99.90;;;;;;4994532;28;20496;-74
2022/01/28 10:51:42;;;;;;;17.83;3.67;;;6.80;99.90;;;;;;4998104;28;20610;-77
2022/01/28 10:54:13;;;;;;;30.73;4.22;;;6.90;99.90;;;;;;4991998;28;20046;-77
2022/01/28 10:56:57;;;;;;;28.65;4.50;;;6.90;99.90;;;;;;4975231;28;20042;-77
2022/01/28 10:59:25;;;;;;;27.20;5.07;;;7.00;99.90;;;;;;4977399;28;20096;-77
2022/01/28 11:01:52;;;;;;;25.45;3.65;;;7.00;99.90;;;;;;5008310;28;20033;-77
2022/01/28 11:04:19;;;;;;;33.63;4.75;;;7.00;99.90;;;;;;5009412;28;20053;-77
2022/01/28 11:06:46;;;;;;;22.73;4.07;;;7.00;99.90;;;;;;4977699;28;20397;-76
2022/01/28 11:09:15;;;;;;;21.95;5.20;;;7.00;99.90;;;;;;4980983;28;20490;-77
2022/01/28 11:11:41;;;;;;;25.73;3.65;;;7.10;99.90;;;;;;4997828;28;20034;-77
2022/01/28 11:14:08;;;;;;;23.45;4.13;;;7.10;99.90;;;;;;4979316;28;20044;-77
2022/01/28 11:16:34;;;;;;;22.10;3.55;;;7.20;99.90;;;;;;4996624;28;20048;-78
2022/01/28 11:19:01;;;;;;;30.65;5.22;;;7.20;99.90;;;;;;5008820;28;20052;-78
2022/01/28 11:22:14;;;;;;;31.67;4.43;;;7.20;99.90;;;;;;4993652;28;20057;-77
2022/01/28 11:25:07;;;;;;;23.38;4.63;;;7.20;99.90;;;;;;4967278;28;20046;-78
2022/01/28 11:27:38;;;;;;;22.55;3.60;;;7.30;99.90;;;;;;4993388;28;20041;-77
2022/01/28 11:30:25;;;;;;;20.73;4.03;;;7.30;99.90;;;;;;5008535;28;20046;-77
2022/01/28 11:33:02;;;;;;;21.23;3.70;;;7.40;99.90;;;;;;4995118;28;20050;-77
2022/01/28 11:35:53;;;;;;;21.88;3.75;;;7.50;99.90;;;;;;4974140;28;20042;-77
2022/01/28 11:38:25;;;;;;;20.88;3.83;;;7.80;99.90;;;;;;4971698;28;20050;-78
2022/01/28 11:40:55;;;;;;;17.98;3.03;;;7.90;99.90;;;;;;4998031;28;20030;-77
2022/01/28 11:43:23;;;;;;;30.38;4.60;;;8.00;99.90;;;;;;4994580;28;20040;-77
2022/01/28 11:46:12;;;;;;;17.98;3.05;;;8.00;99.90;;;;;;4996375;28;20057;-77
2022/01/28 11:48:53;;;;;;;22.33;3.05;;;8.10;99.90;;;;;;4978049;28;20042;-77
2022/01/28 11:51:41;;;;;;;26.27;4.30;;;8.00;99.90;;;;;;5006460;28;20133;-77
2022/01/28 11:54:18;;;;;;;23.92;4.40;;;7.90;99.90;;;;;;4995223;28;20042;-78
2022/01/28 11:56:56;;;;;;;21.77;3.35;;;8.00;99.90;;;;;;5008569;28;20042;-77
2022/01/28 11:59:25;;;;;;;23.42;3.33;;;7.90;99.90;;;;;;5010799;28;20092;-77
2022/01/28 12:01:54;;;;;;;21.98;3.42;;;7.90;99.90;;;;;;4993457;28;20061;-78
2022/01/28 12:04:30;;;;;;;24.15;3.85;;;7.80;99.90;;;;;;4997772;28;20125;-77
2022/01/28 12:07:03;;;;;;;25.23;3.08;;;7.90;99.90;;;;;;5011666;28;20046;-77
2022/01/28 12:09:30;;;;;;;17.83;3.05;;;7.80;99.90;;;;;;5007384;28;20054;-77
2022/01/28 12:11:58;;;;;;;19.00;3.00;;;7.80;99.90;;;;;;4978118;28;20068;-77
2022/01/28 12:14:49;;;;;;;21.23;2.50;;;7.80;99.90;;;;;;4993925;28;20555;-77
2022/01/28 12:17:33;;;;;;;20.35;2.90;;;7.80;99.90;;;;;;4992185;28;20104;-77
2022/01/28 12:20:19;;;;;;;21.58;3.10;;;7.90;99.90;;;;;;4994203;28;20046;-77
2022/01/28 12:23:00;;;;;;;17.55;2.60;;;8.00;99.90;;;;;;4992098;28;20489;-77
2022/01/28 12:25:35;;;;;;;18.08;2.83;;;8.10;99.90;;;;;;4997658;28;20460;-77
2022/01/28 12:28:19;;;;;;;18.80;3.13;;;8.10;99.90;;;;;;4973804;28;20042;-77
2022/01/28 12:30:49;;;;;;;19.08;3.35;;;8.30;99.90;;;;;;4979007;28;20165;-78
2022/01/28 12:33:21;;;;;;;20.38;3.15;;;8.30;99.90;;;;;;4996742;28;20474;-77
2022/01/28 12:35:50;;;;;;;21.20;3.00;;;8.30;99.90;;;;;;4981407;28;20056;-78
2022/01/28 12:38:15;;;;;;;21.38;4.65;;;8.40;99.90;;;;;;4998354;28;20511;-77
2022/01/28 12:40:48;;;;;;;26.25;3.88;;;8.40;99.90;;;;;;4995070;28;20080;-78
2022/01/28 12:43:17;;;;;;;22.77;3.72;;;8.40;99.90;;;;;;4978645;28;20039;-78
2022/01/28 12:45:49;;;;;;;24.13;3.75;;;8.40;99.90;;;;;;4979864;28;20574;-78
2022/01/28 12:48:20;;;;;;;21.65;3.33;;;8.40;99.90;;;;;;5001888;28;20034;-78
2022/01/28 12:50:50;;;;;;;19.65;3.13;;;8.40;99.90;;;;;;4999219;28;20532;-77
2022/01/28 12:53:32;;;;;;;18.55;2.75;;;8.40;99.90;;;;;;4981597;28;20069;-78
2022/01/28 12:56:04;;;;;;;20.90;3.40;;;8.40;99.90;;;;;;4982209;28;20096;-77
2022/01/28 12:58:37;;;;;;;21.48;4.03;;;8.40;99.90;;;;;;4979163;28;20500;-77
2022/01/28 13:01:11;;;;;;;25.00;4.32;;;8.40;99.90;;;;;;5000775;28;20065;-77
2022/01/28 13:03:46;;;;;;;27.17;4.10;;;8.40;99.90;;;;;;4997756;28;20179;-77
2022/01/28 13:06:25;;;;;;;23.10;3.70;;;8.40;99.90;;;;;;5010892;28;20061;-77
2022/01/28 13:08:52;;;;;;;22.33;3.38;;;8.50;99.90;;;;;;5000839;28;20040;-78
2022/01/28 13:11:18;;;;;;;19.67;3.55;;;8.50;99.90;;;;;;5000393;28;20100;-78
2022/01/28 13:13:52;;;;;;;18.40;3.30;;;8.50;99.90;;;;;;4999923;28;20035;-78
2022/01/28 13:16:29;;;;;;;21.33;2.97;;;8.40;99.90;;;;;;4964684;28;20045;-78
2022/01/28 13:18:57;;;;;;;19.00;3.05;;;8.30;99.90;;;;;;4997489;28;20482;-77
2022/01/28 13:21:23;;;;;;;21.90;4.20;;;8.20;99.90;;;;;;4999614;28;20030;-78
2022/01/28 13:24:02;;;;;;;19.80;3.70;;;8.20;99.90;;;;;;4980064;28;20599;-77
2022/01/28 13:26:27;;;;;;;16.33;3.28;;;8.20;99.90;;;;;;4979785;28;20101;-77
2022/01/28 13:29:10;;;;;;;21.35;3.35;;;8.10;99.90;;;;;;5014895;28;20558;-77
2022/01/28 13:31:37;;;;;;;16.05;3.03;;;8.10;99.90;;;;;;5014108;28;20038;-78
2022/01/28 13:34:05;;;;;;;21.35;3.45;;;8.10;99.90;;;;;;4996090;28;20038;-78
2022/01/28 13:36:48;;;;;;;21.85;3.05;;;8.10;99.90;;;;;;4979605;28;20505;-77
2022/01/28 13:39:16;;;;;;;16.80;2.58;;;8.10;99.90;;;;;;4995337;28;20092;-77
2022/01/28 13:41:42;;;;;;;24.38;3.50;;;8.10;99.90;;;;;;4979032;28;20900;-77
2022/01/28 13:44:27;;;;;;;21.27;3.33;;;8.00;99.90;;;;;;4997656;28;20046;-77
2022/01/28 13:46:58;;;;;;;17.45;3.08;;;8.00;99.90;;;;;;5013833;28;20042;-78
2022/01/28 13:49:34;;;;;;;22.20;3.17;;;8.00;99.90;;;;;;5013410;28;20050;-78
2022/01/28 13:52:17;;;;;;;22.13;4.25;;;8.10;99.90;;;;;;4995562;28;20641;-78
2022/01/28 13:54:44;;;;;;;16.80;2.47;;;8.10;99.90;;;;;;4977881;28;20046;-77
2022/01/28 13:57:10;;;;;;;23.60;2.72;;;8.10;99.90;;;;;;4993717;28;20118;-78
2022/01/28 13:59:40;;;;;;;21.02;3.40;;;8.00;99.90;;;;;;4979795;28;20038;-78
2022/01/28 14:02:12;;;;;;;17.10;2.72;;;8.00;99.90;;;;;;4998615;28;20038;-81
2022/01/28 14:04:48;;;;;;;24.70;3.22;;;8.00;99.90;;;;;;4993265;28;20053;-81
2022/01/28 14:07:20;;;;;;;14.95;2.65;;;8.00;99.90;;;;;;4996172;28;20187;-81
2022/01/28 14:09:49;;;;;;;20.77;3.05;;;8.00;99.90;;;;;;4978376;28;20050;-80
2022/01/28 14:12:44;;;;;;;15.30;2.75;;;7.90;99.90;;;;;;4996469;28;20048;-81
2022/01/28 14:15:32;;;;;;;17.02;2.80;;;7.90;99.90;;;;;;5011102;28;20064;-81